Time;durP1;ratioP1;P1;durP2;ratioP2;P2;SDS_P1;SDS_P2;PMS_P1;PMS_P2;Temp;Humidity;BMP_temperature;BMP_pressure;BME280_temperature;BME280_humidity;BME280_pressure;Samples;Min_cycle;Max_cycle;Signal;HPM_P1;HPM_P2
2022/07/17 00:01:05;;;;;;;6.00;4.68;;;;;;;24.51;42.10;98869.22;5137489;27;20038;-94
2022/07/17 00:03:31;;;;;;;6.07;3.90;;;;;;;24.54;42.20;98885.25;5138199;27;20039;-93
2022/07/17 00:05:59;;;;;;;7.63;4.57;;;;;;;24.53;42.44;98889.00;5138509;27;20046;-94
2022/07/17 00:08:24;;;;;;;6.50;4.40;;;;;;;24.39;42.39;98868.34;5138006;27;20035;-94
2022/07/17 00:10:51;;;;;;;7.53;4.30;;;;;;;24.48;42.55;98879.44;5138250;27;20046;-94
2022/07/17 00:13:17;;;;;;;6.82;4.38;;;;;;;24.39;42.30;98871.06;5133664;27;20037;-93
2022/07/17 00:15:43;;;;;;;6.30;4.32;;;;;;;24.44;42.46;98873.41;5138201;27;20069;-95
2022/07/17 00:18:09;;;;;;;5.82;4.40;;;;;;;24.47;42.49;98886.75;5137824;27;20488;-95
2022/07/17 00:20:35;;;;;;;5.95;4.55;;;;;;;24.27;42.69;98861.22;5137796;27;20066;-93
2022/07/17 00:23:02;;;;;;;6.35;4.13;;;;;;;24.27;42.93;98871.22;5137808;27;20050;-94
2022/07/17 00:25:28;;;;;;;6.78;4.32;;;;;;;24.22;43.28;98868.00;5137908;27;20373;-94
2022/07/17 00:27:54;;;;;;;7.28;4.60;;;;;;;24.13;42.93;98846.03;5137127;27;20102;-95
2022/07/17 00:30:21;;;;;;;5.82;4.50;;;;;;;24.17;43.29;98861.09;5137452;27;20039;-93
2022/07/17 00:32:46;;;;;;;4.68;4.10;;;;;;;24.10;43.41;98867.16;5136701;27;20047;-94
2022/07/17 00:35:12;;;;;;;8.25;4.40;;;;;;;24.08;43.44;98877.28;5137317;27;20039;-94
2022/07/17 00:37:39;;;;;;;6.10;4.15;;;;;;;24.07;43.48;98873.72;5137008;27;20068;-92
2022/07/17 00:40:09;;;;;;;6.80;4.22;;;;;;;24.00;43.80;98858.88;5137871;27;20032;-95
2022/07/17 00:42:35;;;;;;;5.20;4.13;;;;;;;23.94;43.70;98871.13;5137516;27;20062;-93
2022/07/17 00:45:01;;;;;;;7.13;4.88;;;;;;;23.93;43.91;98884.81;5136596;27;20492;-95
2022/07/17 00:47:27;;;;;;;5.53;4.10;;;;;;;23.74;44.45;98872.66;5137501;27;20039;-94
2022/07/17 00:49:53;;;;;;;5.60;4.60;;;;;;;23.49;44.62;98848.47;5137496;27;20039;-94
2022/07/17 00:52:19;;;;;;;5.65;4.30;;;;;;;23.44;44.96;98864.25;5137077;27;20492;-93
2022/07/17 00:54:46;;;;;;;6.13;4.30;;;;;;;23.40;44.43;98858.22;5137848;27;20047;-94
2022/07/17 00:57:15;;;;;;;5.53;4.47;;;;;;;23.29;44.81;98847.31;5137773;27;20388;-94
2022/07/17 00:59:41;;;;;;;5.22;4.45;;;;;;;23.25;45.41;98862.09;5136630;27;20035;-95
2022/07/17 01:02:08;;;;;;;6.47;4.30;;;;;;;23.08;45.83;98861.56;5136763;27;20147;-93
2022/07/17 01:04:35;;;;;;;5.70;4.45;;;;;;;22.93;46.60;98870.84;5136378;27;20070;-93
2022/07/17 01:07:05;;;;;;;5.72;4.50;;;;;;;22.76;46.96;98856.72;5131056;27;20031;-93
2022/07/17 01:09:31;;;;;;;6.32;4.60;;;;;;;22.76;46.73;98867.56;5134196;27;20031;-93
2022/07/17 01:11:57;;;;;;;7.18;4.50;;;;;;;22.84;46.74;98877.00;5136544;27;20050;-94
2022/07/17 01:14:27;;;;;;;5.18;4.68;;;;;;;22.71;46.85;98858.06;5136253;27;20039;-94
2022/07/17 01:16:54;;;;;;;6.13;4.60;;;;;;;22.80;47.04;98883.63;5136146;27;20035;-93
2022/07/17 01:19:20;;;;;;;8.27;4.55;;;;;;;22.72;47.10;98876.06;5133909;27;20488;-95
2022/07/17 01:21:49;;;;;;;5.35;4.60;;;;;;;22.81;46.61;98891.63;5134501;27;20100;-92
2022/07/17 01:24:16;;;;;;;6.07;4.60;;;;;;;22.72;46.20;98879.63;5136708;27;20481;-93
2022/07/17 01:26:43;;;;;;;5.15;4.20;;;;;;;22.83;46.30;98888.78;5137015;27;20046;-92
2022/07/17 01:29:10;;;;;;;6.20;4.75;;;;;;;22.82;46.19;98897.94;5136879;27;20083;-92
2022/07/17 01:31:36;;;;;;;5.55;4.70;;;;;;;22.77;46.67;98901.84;5136429;27;20514;-94
2022/07/17 01:34:04;;;;;;;7.10;4.78;;;;;;;22.65;46.48;98881.06;5136072;27;20031;-94
2022/07/17 01:36:30;;;;;;;;;;;;;;;22.70;47.13;98902.41;5136749;27;20075;-94
2022/07/17 01:38:57;;;;;;;5.50;4.20;;;;;;;22.56;47.47;98885.34;5136326;27;19923;-94
2022/07/17 01:41:23;;;;;;;5.90;4.40;;;;;;;22.53;47.12;98899.13;5134825;27;20389;-92
2022/07/17 01:43:49;;;;;;;6.25;4.32;;;;;;;22.44;46.97;98883.53;5135533;27;20495;-94
2022/07/17 01:46:15;;;;;;;5.80;4.25;;;;;;;22.33;46.81;98883.47;5135464;27;20039;-93
2022/07/17 01:48:41;;;;;;;5.38;4.28;;;;;;;22.25;47.18;98875.03;5136451;27;20083;-94
2022/07/17 01:51:07;;;;;;;5.20;4.40;;;;;;;22.29;47.16;98880.13;5136113;27;20031;-93
2022/07/17 01:53:33;;;;;;;6.05;4.88;;;;;;;22.29;47.33;98884.66;5136288;27;20046;-93
2022/07/17 01:56:00;;;;;;;7.60;4.82;;;;;;;22.17;47.85;98875.56;5135569;27;20047;-94
2022/07/17 01:58:26;;;;;;;5.85;4.20;;;;;;;22.10;47.69;98883.28;5136564;27;20039;-93
2022/07/17 02:00:52;;;;;;;5.38;4.10;;;;;;;22.13;47.71;98891.16;5136181;27;20047;-94
2022/07/17 02:03:18;;;;;;;7.32;4.63;;;;;;;22.08;48.91;98889.78;5136433;27;20035;-93
2022/07/17 02:05:44;;;;;;;6.05;4.75;;;;;;;21.99;48.49;98877.78;5136144;27;20043;-94
2022/07/17 02:08:10;;;;;;;6.63;4.57;;;;;;;22.00;48.43;98894.91;5136613;27;20461;-95
2022/07/17 02:10:36;;;;;;;8.77;4.57;;;;;;;21.92;48.10;98877.38;5136038;27;20049;-94
2022/07/17 02:13:03;;;;;;;6.50;4.63;;;;;;;22.04;47.92;98891.00;5135991;27;20122;-91
2022/07/17 02:15:29;;;;;;;6.68;4.40;;;;;;;21.83;48.56;98863.59;5134909;27;20069;-93
2022/07/17 02:17:55;;;;;;;6.63;4.63;;;;;;;21.90;48.04;98884.72;5136344;27;20063;-95
2022/07/17 02:20:22;;;;;;;5.97;4.43;;;;;;;21.84;48.58;98877.03;5135728;28;20053;-94
2022/07/17 02:22:48;;;;;;;6.43;4.60;;;;;;;21.90;48.69;98898.28;5135719;28;20507;-93
2022/07/17 02:25:17;;;;;;;5.88;4.47;;;;;;;21.89;49.16;98893.81;5135885;28;20043;-93
2022/07/17 02:27:43;;;;;;;5.47;4.80;;;;;;;21.76;48.87;98876.72;5136088;28;20216;-92
2022/07/17 02:30:13;;;;;;;6.10;4.53;;;;;;;21.82;48.93;98891.66;5135481;28;20104;-95
2022/07/17 02:32:40;;;;;;;6.45;4.25;;;;;;;21.78;49.31;98874.78;5135625;28;20043;-94
2022/07/17 02:35:08;;;;;;;4.82;4.32;;;;;;;21.72;49.36;98862.53;5136120;28;20121;-94
2022/07/17 02:37:34;;;;;;;5.20;4.28;;;;;;;21.81;49.53;98868.28;5135731;28;20508;-93
2022/07/17 02:40:00;;;;;;;5.82;4.60;;;;;;;21.74;49.14;98862.44;5135504;28;20047;-94
2022/07/17 02:42:28;;;;;;;6.18;4.40;;;;;;;21.76;49.29;98871.31;5134263;28;20039;-94
2022/07/17 02:44:55;;;;;;;5.20;4.40;;;;;;;21.76;49.32;98884.84;5135466;28;20039;-93
2022/07/17 02:47:24;;;;;;;7.82;4.78;;;;;;;21.60;50.23;98868.84;5129487;28;20039;-91
2022/07/17 02:49:50;;;;;;;5.65;4.28;;;;;;;21.64;49.71;98883.88;5134234;28;20039;-93
2022/07/17 02:52:16;;;;;;;6.53;4.40;;;;;;;21.64;49.90;98880.28;5135467;28;20472;-94
2022/07/17 02:54:42;;;;;;;6.00;4.50;;;;;;;21.47;49.99;98849.91;5135184;28;20131;-94
2022/07/17 02:57:07;;;;;;;5.30;4.45;;;;;;;21.50;49.87;98865.91;5135548;28;20114;-94
2022/07/17 02:59:34;;;;;;;7.28;4.63;;;;;;;21.57;49.88;98882.56;5135306;28;20423;-93
2022/07/17 03:02:00;;;;;;;5.55;4.78;;;;;;;21.51;49.82;98872.16;5135807;28;20035;-93
2022/07/17 03:04:27;;;;;;;6.72;4.38;;;;;;;21.46;49.91;98875.19;5135417;28;20553;-94
2022/07/17 03:06:53;;;;;;;6.72;4.80;;;;;;;21.45;50.39;98881.59;5135084;28;20061;-94
2022/07/17 03:09:18;;;;;;;5.90;4.65;;;;;;;21.34;50.47;98870.63;5138041;27;20122;-94
2022/07/17 03:11:44;;;;;;;6.95;4.65;;;;;;;21.39;50.69;98878.44;5139528;27;20039;-93
2022/07/17 03:14:10;;;;;;;5.18;4.60;;;;;;;21.27;51.28;98869.31;5138994;27;20056;-95
2022/07/17 03:16:36;;;;;;;5.85;4.93;;;;;;;21.27;52.19;98870.16;5139192;27;20118;-93
2022/07/17 03:19:02;;;;;;;6.60;4.55;;;;;;;21.44;52.15;98876.28;5139988;27;20053;-94
2022/07/17 03:21:29;;;;;;;7.10;4.93;;;;;;;21.42;52.68;98889.06;5138684;27;20096;-95
2022/07/17 03:23:55;;;;;;;8.02;4.95;;;;;;;21.20;53.36;98866.16;5141061;27;20043;-94
2022/07/17 03:26:22;;;;;;;5.65;5.00;;;;;;;21.31;53.58;98879.81;5142572;27;20400;-94
2022/07/17 03:28:48;;;;;;;5.78;4.78;;;;;;;21.19;53.69;98871.66;5141591;27;20055;-96
2022/07/17 03:31:14;;;;;;;6.35;5.20;;;;;;;21.22;53.52;98869.63;5140836;27;20039;-96
2022/07/17 03:33:40;;;;;;;6.68;4.90;;;;;;;21.37;53.88;98886.63;5140698;27;20046;-93
2022/07/17 03:36:06;;;;;;;7.13;4.90;;;;;;;21.45;53.98;98884.31;5140462;27;20137;-94
2022/07/17 03:38:34;;;;;;;5.40;4.63;;;;;;;21.36;53.92;98870.50;5138811;27;20089;-94
2022/07/17 03:41:00;;;;;;;8.02;5.45;;;;;;;21.39;54.09;98878.44;5136038;27;20059;-92
2022/07/17 03:43:26;;;;;;;5.50;4.82;;;;;;;21.56;53.80;98896.19;5138578;27;20035;-94
2022/07/17 03:45:52;;;;;;;7.65;5.20;;;;;;;21.61;53.79;98907.59;5140144;27;20089;-95
2022/07/17 03:48:18;;;;;;;5.70;4.70;;;;;;;21.47;53.42;98878.75;5139304;27;20043;-92
2022/07/17 03:50:44;;;;;;;6.28;4.85;;;;;;;21.68;54.09;98907.03;5138951;27;20051;-94
2022/07/17 03:53:10;;;;;;;6.47;5.30;;;;;;;21.62;53.94;98902.06;5138802;27;20031;-91
2022/07/17 03:55:37;;;;;;;6.50;5.10;;;;;;;21.53;53.94;98889.16;5137513;27;20065;-93
2022/07/17 03:58:03;;;;;;;6.43;5.28;;;;;;;21.68;54.42;98908.88;5139358;27;20472;-94
2022/07/17 04:00:28;;;;;;;6.43;5.15;;;;;;;21.74;54.66;98916.56;5138638;27;20136;-93
2022/07/17 04:02:54;;;;;;;6.30;5.22;;;;;;;21.63;54.80;98917.31;5138464;27;20096;-93
2022/07/17 04:05:20;;;;;;;9.35;5.28;;;;;;;21.42;55.24;98908.84;5138297;27;20039;-94
2022/07/17 04:07:46;;;;;;;6.75;5.22;;;;;;;21.45;55.16;98911.38;5138578;27;20384;-95
2022/07/17 04:10:14;;;;;;;5.70;4.93;;;;;;;21.46;55.61;98926.59;5138651;27;20046;-94
2022/07/17 04:12:41;;;;;;;6.78;4.75;;;;;;;21.34;55.77;98908.50;5138373;27;20035;-95
2022/07/17 04:15:09;;;;;;;7.47;5.13;;;;;;;21.41;55.39;98933.28;5138382;27;20058;-94
2022/07/17 04:17:35;;;;;;;8.55;5.20;;;;;;;21.29;56.87;98925.03;5138237;27;20534;-94
2022/07/17 04:20:00;;;;;;;6.18;4.75;;;;;;;21.27;56.95;98924.25;5137703;27;20063;-94
2022/07/17 04:22:26;;;;;;;6.65;5.18;;;;;;;21.27;56.50;98918.00;5138104;27;20031;-92
2022/07/17 04:24:52;;;;;;;7.00;5.35;;;;;;;21.26;56.24;98913.56;5138473;27;20069;-93
2022/07/17 04:27:18;;;;;;;6.03;5.18;;;;;;;21.23;57.35;98917.38;5137052;27;20107;-93
2022/07/17 04:29:46;;;;;;;5.75;4.85;;;;;;;21.33;57.19;98933.81;5137688;27;20130;-94
2022/07/17 04:32:11;;;;;;;5.47;4.90;;;;;;;21.29;57.38;98910.66;5137506;27;20042;-92
2022/07/17 04:34:37;;;;;;;6.20;5.05;;;;;;;21.39;57.79;98933.38;5137630;27;20129;-93
2022/07/17 04:37:03;;;;;;;6.65;5.10;;;;;;;21.47;57.79;98941.88;5137904;27;20031;-93
2022/07/17 04:39:30;;;;;;;7.22;5.15;;;;;;;21.43;58.68;98915.16;5137759;27;20055;-93
2022/07/17 04:41:56;;;;;;;6.68;5.65;;;;;;;21.46;59.35;98917.63;5137443;27;20489;-92
2022/07/17 04:44:22;;;;;;;7.80;5.45;;;;;;;21.65;59.05;98939.72;5137485;27;20096;-93
2022/07/17 04:46:49;;;;;;;8.35;5.40;;;;;;;21.59;59.34;98926.63;5137491;27;20039;-93
2022/07/17 04:49:15;;;;;;;8.80;5.82;;;;;;;21.63;59.05;98935.41;5137589;27;20050;-93
2022/07/17 04:51:41;;;;;;;7.50;6.00;;;;;;;21.62;59.07;98925.53;5137328;27;20374;-93
2022/07/17 04:54:07;;;;;;;6.60;5.68;;;;;;;21.72;59.79;98918.50;5137335;27;20042;-93
2022/07/17 04:56:32;;;;;;;6.80;5.97;;;;;;;21.76;59.71;98930.84;5137471;27;20046;-92
2022/07/17 04:58:58;;;;;;;7.10;5.30;;;;;;;21.83;59.61;98934.84;5137008;27;20558;-91
2022/07/17 05:01:24;;;;;;;6.78;5.20;;;;;;;21.79;59.81;98918.94;5136750;27;20138;-93
2022/07/17 05:03:51;;;;;;;6.15;5.35;;;;;;;21.87;57.44;98911.16;5136940;27;20148;-93
2022/07/17 05:06:17;;;;;;;7.30;5.38;;;;;;;21.89;57.86;98896.53;5136975;27;20031;-92
2022/07/17 05:08:43;;;;;;;7.22;5.60;;;;;;;22.28;58.00;98924.44;5137413;27;20050;-92
2022/07/17 05:11:09;;;;;;;6.85;5.32;;;;;;;22.86;53.89;98931.97;5133381;27;20038;-93
2022/07/17 05:13:35;;;;;;;5.80;5.20;;;;;;;23.33;52.42;98897.66;5137036;27;20043;-92
2022/07/17 05:16:01;;;;;;;6.72;5.28;;;;;;;24.00;52.32;98932.22;5136876;27;20035;-93
2022/07/17 05:18:26;;;;;;;6.88;5.80;;;;;;;24.20;50.67;98900.72;5137274;27;20092;-94
2022/07/17 05:20:54;;;;;;;5.72;5.07;;;;;;;24.62;48.77;98917.28;5136803;27;20088;-92
2022/07/17 05:23:19;;;;;;;8.48;4.90;;;;;;;24.87;48.48;98926.09;5136698;27;20572;-93
2022/07/17 05:25:45;;;;;;;8.45;5.30;;;;;;;25.09;47.23;98916.97;5137062;27;20066;-93
2022/07/17 05:28:11;;;;;;;6.40;5.40;;;;;;;25.15;47.12;98908.31;5137039;27;20485;-93
2022/07/17 05:30:37;;;;;;;7.05;5.40;;;;;;;25.36;47.58;98911.94;5136863;27;20092;-91
2022/07/17 05:33:03;;;;;;;8.63;5.85;;;;;;;25.49;47.88;98911.75;5135774;27;20043;-94
2022/07/17 05:35:28;;;;;;;7.60;5.70;;;;;;;25.59;47.87;98903.63;5136962;27;20039;-93
2022/07/17 05:37:56;;;;;;;8.13;5.90;;;;;;;25.67;47.64;98916.59;5137094;27;20065;-94
2022/07/17 05:40:22;;;;;;;6.10;5.50;;;;;;;25.94;47.31;98925.09;5136730;27;20068;-94
2022/07/17 05:42:47;;;;;;;7.10;5.47;;;;;;;26.05;47.74;98935.06;5136579;27;20501;-92
2022/07/17 05:45:13;;;;;;;7.80;6.05;;;;;;;25.98;47.79;98910.22;5137040;27;20549;-93
2022/07/17 05:47:39;;;;;;;9.70;6.05;;;;;;;26.06;47.90;98922.28;5136552;27;20039;-94
2022/07/17 05:50:05;;;;;;;9.88;6.03;;;;;;;26.07;47.46;98919.44;5136412;27;20046;-94
2022/07/17 05:52:31;;;;;;;7.60;6.03;;;;;;;26.18;47.69;98927.50;5136884;27;20384;-93
2022/07/17 05:54:58;;;;;;;8.35;6.43;;;;;;;26.20;47.81;98932.84;5136092;27;20061;-94
2022/07/17 05:57:24;;;;;;;7.20;6.50;;;;;;;26.26;48.24;98923.22;5136606;27;20039;-95
2022/07/17 05:59:50;;;;;;;7.60;6.50;;;;;;;26.30;47.35;98921.97;5137137;27;20511;-95
2022/07/17 06:02:16;;;;;;;8.93;6.50;;;;;;;26.42;47.11;98921.72;5136911;27;20130;-94
2022/07/17 06:04:41;;;;;;;9.93;6.50;;;;;;;26.55;47.32;98934.25;5135712;27;20035;-94
2022/07/17 06:07:07;;;;;;;8.85;6.90;;;;;;;26.53;47.68;98928.06;5136765;27;20046;-94
2022/07/17 06:09:33;;;;;;;7.97;6.53;;;;;;;26.61;46.91;98937.31;5137301;27;20437;-96
2022/07/17 06:12:01;;;;;;;8.43;6.68;;;;;;;26.67;46.73;98954.13;5137223;27;20047;-94
2022/07/17 06:14:26;;;;;;;8.50;6.35;;;;;;;26.51;46.84;98941.00;5136581;27;20043;-95
2022/07/17 06:16:52;;;;;;;7.45;5.82;;;;;;;26.40;47.33;98942.81;5136480;27;20123;-94
2022/07/17 06:19:18;;;;;;;7.28;6.28;;;;;;;26.38;47.65;98935.78;5136905;27;20403;-94
2022/07/17 06:21:44;;;;;;;6.70;6.00;;;;;;;26.55;47.75;98953.34;5136690;27;20074;-94
2022/07/17 06:24:10;;;;;;;9.45;6.82;;;;;;;26.50;47.26;98923.78;5136899;28;20042;-94
2022/07/17 06:26:35;;;;;;;9.00;6.82;;;;;;;26.54;47.02;98941.56;5136711;28;20043;-93
2022/07/17 06:29:03;;;;;;;10.15;6.45;;;;;;;26.60;46.59;98937.44;5136536;28;20587;-94
2022/07/17 06:31:29;;;;;;;8.45;6.38;;;;;;;26.49;46.99;98943.00;5136842;28;20027;-94
2022/07/17 06:33:54;;;;;;;8.23;6.50;;;;;;;26.48;47.13;98961.22;5136634;28;20042;-96
2022/07/17 06:36:20;;;;;;;7.43;6.72;;;;;;;26.28;46.80;98927.53;5135212;28;20040;-93
2022/07/17 06:38:46;;;;;;;8.88;6.45;;;;;;;26.59;46.77;98946.66;5136337;28;20046;-94
2022/07/17 06:41:12;;;;;;;8.35;6.82;;;;;;;26.64;46.95;98960.72;5136244;28;20051;-95
2022/07/17 06:43:38;;;;;;;8.82;6.90;;;;;;;26.86;46.38;98953.31;5137551;27;20027;-94
2022/07/17 06:46:05;;;;;;;8.30;6.10;;;;;;;26.87;45.10;98930.47;5140705;27;20038;-94
2022/07/17 06:48:31;;;;;;;9.10;6.90;;;;;;;26.70;45.51;98952.00;5140382;27;20050;-95
2022/07/17 06:50:57;;;;;;;9.45;6.60;;;;;;;26.90;44.80;98949.31;5140279;27;20426;-94
2022/07/17 06:53:23;;;;;;;9.55;6.50;;;;;;;26.99;44.51;98937.53;5141130;27;20061;-94
2022/07/17 06:55:48;;;;;;;9.70;6.40;;;;;;;27.14;43.89;98917.00;5140413;27;20035;-94
2022/07/17 06:58:14;;;;;;;8.05;6.05;;;;;;;27.47;43.57;98947.63;5140012;27;20035;-93
2022/07/17 07:00:40;;;;;;;10.65;6.28;;;;;;;27.60;43.57;98926.31;5140991;27;20044;-96
2022/07/17 07:03:08;;;;;;;7.30;5.75;;;;;;;27.77;43.12;98916.53;5140088;27;20037;-93
2022/07/17 07:05:33;;;;;;;7.18;6.32;;;;;;;27.87;42.13;98943.88;5140415;27;20050;-94
2022/07/17 07:07:59;;;;;;;7.78;6.43;;;;;;;27.95;41.82;98946.72;5138886;27;20055;-93
2022/07/17 07:10:25;;;;;;;8.27;6.13;;;;;;;28.06;41.78;98932.88;5139341;27;20047;-94
2022/07/17 07:12:51;;;;;;;6.72;5.78;;;;;;;28.18;42.07;98938.16;5139476;27;20420;-94
2022/07/17 07:15:17;;;;;;;9.32;5.72;;;;;;;28.34;41.78;98934.78;5119705;28;20134;-96
2022/07/17 07:17:43;;;;;;;8.07;6.25;;;;;;;28.46;40.85;98917.16;5125153;27;20039;-93
2022/07/17 07:20:11;;;;;;;7.18;6.15;;;;;;;28.49;41.25;98944.25;5139338;27;20039;-94
2022/07/17 07:22:37;;;;;;;;;;;;;;;28.71;41.89;98942.97;5140243;27;20502;-95
2022/07/17 07:25:04;;;;;;;7.30;6.60;;;;;;;28.68;40.75;98911.28;5145485;27;19926;-95
2022/07/17 07:27:30;;;;;;;8.25;6.50;;;;;;;28.63;41.57;98941.00;5147041;27;20043;-96
2022/07/17 07:29:56;;;;;;;9.10;6.30;;;;;;;28.29;41.66;98917.97;5146399;27;20154;-96
2022/07/17 07:32:22;;;;;;;11.30;6.57;;;;;;;28.71;41.64;98937.50;5147919;27;20099;-96
2022/07/17 07:34:48;;;;;;;10.23;6.70;;;;;;;29.04;40.29;98940.63;5144528;27;20039;-96
2022/07/17 07:37:15;;;;;;;9.18;6.93;;;;;;;29.24;39.69;98922.19;5144432;27;20564;-95
2022/07/17 07:39:41;;;;;;;10.57;7.22;;;;;;;29.50;39.42;98916.75;5144429;27;20450;-95
2022/07/17 07:42:07;;;;;;;10.50;6.78;;;;;;;29.60;38.80;98912.06;5143085;27;20054;-95
2022/07/17 07:44:33;;;;;;;9.10;6.70;;;;;;;29.49;39.30;98950.63;5143836;27;20055;-95
2022/07/17 07:46:59;;;;;;;8.20;6.40;;;;;;;29.44;38.98;98942.03;5144141;27;20146;-95
2022/07/17 07:49:25;;;;;;;7.82;6.60;;;;;;;29.31;39.15;98925.16;5142582;27;20070;-94
2022/07/17 07:51:51;;;;;;;10.57;6.70;;;;;;;29.66;39.16;98941.53;5141414;27;20039;-94
2022/07/17 07:54:18;;;;;;;9.98;6.50;;;;;;;29.98;39.06;98948.31;5140370;27;20043;-95
2022/07/17 07:56:45;;;;;;;7.03;6.20;;;;;;;30.13;38.07;98923.06;5137333;27;20487;-93
2022/07/17 07:59:11;;;;;;;10.57;6.10;;;;;;;29.99;37.87;98911.63;5142849;27;20300;-96
2022/07/17 08:01:36;;;;;;;8.07;6.38;;;;;;;30.38;37.48;98938.63;5140213;27;20043;-95
2022/07/17 08:04:03;;;;;;;10.32;6.70;;;;;;;30.56;36.69;98934.91;5141912;27;20043;-96
2022/07/17 08:06:28;;;;;;;8.55;6.78;;;;;;;30.82;36.47;98943.97;5144878;27;20039;-92
2022/07/17 08:08:54;;;;;;;7.70;6.05;;;;;;;30.80;37.29;98918.56;5145887;27;20035;-92
2022/07/17 08:11:24;;;;;;;7.78;6.22;;;;;;;30.74;36.35;98924.72;5145476;27;20047;-94
2022/07/17 08:13:50;;;;;;;7.68;6.25;;;;;;;31.09;36.52;98911.78;5144964;27;20047;-93
2022/07/17 08:16:16;;;;;;;10.32;6.63;;;;;;;31.27;35.61;98920.75;5144762;27;20058;-96
2022/07/17 08:18:42;;;;;;;7.55;6.75;;;;;;;31.49;35.58;98915.63;5146565;27;20043;-93
2022/07/17 08:21:08;;;;;;;7.68;6.53;;;;;;;31.59;35.02;98930.03;5144584;27;20047;-94
2022/07/17 08:23:34;;;;;;;7.90;6.68;;;;;;;31.52;35.50;98926.25;5144186;27;20050;-95
2022/07/17 08:26:00;;;;;;;9.45;7.10;;;;;;;31.75;35.18;98914.56;5144016;27;20140;-95
2022/07/17 08:28:27;;;;;;;8.68;6.47;;;;;;;31.93;34.80;98906.97;5145845;27;20046;-94
2022/07/17 08:30:53;;;;;;;9.97;6.30;;;;;;;32.13;34.08;98938.59;5146560;27;20051;-96
2022/07/17 08:33:19;;;;;;;7.95;6.65;;;;;;;32.11;34.11;98915.88;5141291;27;20373;-95
2022/07/17 08:35:45;;;;;;;7.88;6.95;;;;;;;32.26;33.71;98909.66;5146290;27;20134;-94
2022/07/17 08:38:11;;;;;;;10.65;6.95;;;;;;;32.36;33.34;98917.69;5143037;27;20042;-96
2022/07/17 08:40:38;;;;;;;9.13;6.40;;;;;;;32.32;33.29;98930.97;5142731;27;20091;-95
2022/07/17 08:43:06;;;;;;;7.20;5.55;;;;;;;31.50;33.68;98917.34;5142990;27;20110;-95
2022/07/17 08:45:34;;;;;;;;;;;;;;;32.03;33.29;98932.44;5145700;27;20040;-93
2022/07/17 08:48:00;;;;;;;6.05;5.40;;;;;;;32.10;32.59;98924.34;5144494;27;20319;-94
2022/07/17 08:50:29;;;;;;;6.90;5.70;;;;;;;32.03;32.39;98910.44;5144267;27;20073;-95
2022/07/17 08:52:57;;;;;;;7.47;6.00;;;;;;;32.07;32.92;98914.53;5144703;27;20062;-95
2022/07/17 08:55:23;;;;;;;7.70;5.68;;;;;;;32.31;32.51;98907.22;5141962;27;20043;-96
2022/07/17 08:57:49;;;;;;;7.25;5.80;;;;;;;32.59;32.08;98915.91;5143104;27;20047;-96
2022/07/17 09:00:18;;;;;;;6.60;5.40;;;;;;;32.82;31.48;98915.13;5143301;27;20183;-94
2022/07/17 09:02:57;;;;;;;6.80;5.70;;;;;;;32.97;31.83;98931.75;5136926;27;20039;-94
2022/07/17 09:05:25;;;;;;;7.57;5.50;;;;;;;32.53;32.80;98931.28;5138144;27;20095;-93
2022/07/17 09:07:51;;;;;;;6.63;6.03;;;;;;;32.97;32.13;98927.09;5136890;27;20102;-92
2022/07/17 09:10:17;;;;;;;6.93;5.72;;;;;;;32.72;31.33;98918.94;5138936;27;20039;-94
2022/07/17 09:12:43;;;;;;;7.85;5.90;;;;;;;33.10;31.22;98938.41;5139707;27;20043;-91
2022/07/17 09:15:16;;;;;;;6.40;5.60;;;;;;;32.86;31.76;98910.97;5137248;27;20027;-94
2022/07/17 09:17:48;;;;;;;6.68;5.38;;;;;;;33.35;31.94;98939.09;5137654;27;20039;-93
2022/07/17 09:20:16;;;;;;;7.68;5.10;;;;;;;33.30;30.83;98905.69;5137091;27;20039;-95
2022/07/17 09:22:43;;;;;;;7.97;5.80;;;;;;;33.52;31.27;98897.59;5142424;27;20047;-94
2022/07/17 09:25:09;;;;;;;7.20;5.70;;;;;;;33.55;30.39;98919.31;5138172;27;20053;-94
2022/07/17 09:27:35;;;;;;;6.78;5.65;;;;;;;33.59;31.17;98898.59;5137609;27;20032;-95
2022/07/17 09:30:04;;;;;;;7.53;5.40;;;;;;;33.75;30.87;98895.69;5141798;27;20060;-95
2022/07/17 09:32:34;;;;;;;10.02;5.65;;;;;;;33.58;30.27;98894.09;5139459;27;20122;-93
2022/07/17 09:35:01;;;;;;;6.97;5.75;;;;;;;33.76;30.26;98893.78;5136261;27;20106;-95
2022/07/17 09:37:29;;;;;;;6.60;5.63;;;;;;;34.08;30.09;98913.81;5137300;27;20039;-94
2022/07/17 09:39:56;;;;;;;6.15;5.30;;;;;;;34.08;30.57;98881.53;5138084;27;20034;-95
2022/07/17 09:42:27;;;;;;;6.40;5.40;;;;;;;34.23;30.05;98892.63;5138192;27;20069;-96
2022/07/17 09:44:58;;;;;;;8.80;5.90;;;;;;;33.71;30.63;98904.53;5137601;27;20476;-95
2022/07/17 09:47:24;;;;;;;8.05;5.97;;;;;;;32.94;31.66;98886.13;5136666;27;20126;-94
2022/07/17 09:49:53;;;;;;;6.50;5.53;;;;;;;33.18;31.23;98884.25;5137470;27;20042;-93
2022/07/17 09:52:19;;;;;;;9.40;5.90;;;;;;;33.61;30.77;98881.88;5137488;27;20099;-93
2022/07/17 09:54:48;;;;;;;5.78;5.18;;;;;;;33.90;30.27;98878.31;5136981;27;20133;-93
2022/07/17 09:57:15;;;;;;;7.32;6.30;;;;;;;34.19;30.28;98879.41;5139464;27;20096;-94
2022/07/17 09:59:42;;;;;;;6.07;5.45;;;;;;;34.27;29.71;98884.81;5139300;27;20042;-92
2022/07/17 10:02:09;;;;;;;6.13;5.53;;;;;;;34.47;29.57;98885.94;5139873;27;20511;-94
2022/07/17 10:04:36;;;;;;;8.95;5.97;;;;;;;34.65;28.87;98891.06;5137483;27;20385;-93
2022/07/17 10:07:02;;;;;;;6.15;5.55;;;;;;;34.81;28.94;98892.78;5137511;27;20039;-94
2022/07/17 10:09:29;;;;;;;8.77;6.50;;;;;;;34.99;28.76;98906.13;5139115;27;20043;-94
2022/07/17 10:12:01;;;;;;;6.28;5.65;;;;;;;34.86;28.28;98872.84;5139721;27;20031;-94
2022/07/17 10:14:28;;;;;;;6.65;5.82;;;;;;;34.42;28.80;98885.66;5135964;27;20036;-94
2022/07/17 10:16:53;;;;;;;7.28;5.60;;;;;;;34.07;29.98;98895.53;5138228;27;20031;-94
2022/07/17 10:19:21;;;;;;;7.00;5.78;;;;;;;34.32;29.26;98876.81;5139803;27;20092;-93
2022/07/17 10:21:56;;;;;;;6.65;5.68;;;;;;;34.15;29.18;98887.19;5138294;27;20055;-94
2022/07/17 10:24:22;;;;;;;9.05;7.30;;;;;;;34.43;28.99;98879.09;5136628;28;20036;-95
2022/07/17 10:26:49;;;;;;;7.07;6.10;;;;;;;34.73;28.96;98874.38;5136433;28;20038;-93
2022/07/17 10:29:31;;;;;;;7.60;5.53;;;;;;;35.02;28.79;98894.69;5137419;28;20098;-95
2022/07/17 10:31:59;;;;;;;8.88;6.78;;;;;;;35.20;27.53;98877.69;5138219;28;20080;-95
2022/07/17 10:34:38;;;;;;;;;;;;;;;35.46;27.67;98890.03;5139917;28;20488;-94
2022/07/17 10:37:21;;;;;;;6.70;6.00;;;;;;;35.38;27.51;98857.88;5141160;28;19963;-95
2022/07/17 10:40:00;;;;;;;6.13;5.55;;;;;;;35.47;27.80;98877.94;5140457;28;20039;-96
2022/07/17 10:42:50;;;;;;;7.72;6.20;;;;;;;35.21;27.55;98861.97;5137695;28;20049;-94
2022/07/17 10:45:19;;;;;;;6.47;5.40;;;;;;;35.47;27.68;98861.34;5134749;28;20047;-95
2022/07/17 10:47:50;;;;;;;6.57;5.88;;;;;;;35.81;27.58;98874.41;5139295;28;20107;-95
2022/07/17 10:50:18;;;;;;;7.40;5.80;;;;;;;35.78;26.43;98852.66;5141383;28;20058;-93
2022/07/17 10:52:44;;;;;;;7.03;5.15;;;;;;;35.87;26.09;98845.06;5140454;28;20039;-94
2022/07/17 10:55:21;;;;;;;6.30;5.68;;;;;;;35.89;26.46;98870.63;5139719;28;20130;-94
2022/07/17 10:57:48;;;;;;;8.65;5.05;;;;;;;35.88;26.18;98850.41;5134803;28;20087;-94
2022/07/17 11:00:15;;;;;;;6.30;4.90;;;;;;;35.99;24.83;98846.22;5138663;28;20035;-95
2022/07/17 11:02:43;;;;;;;6.00;4.80;;;;;;;36.12;23.32;98859.28;5138756;28;20511;-95
2022/07/17 11:05:09;;;;;;;;;;;;;;;36.19;23.52;98879.59;5137230;28;20067;-94
2022/07/17 11:07:35;;;;;;;5.63;4.53;;;;;;;36.11;23.92;98858.44;5136033;28;19924;-95
2022/07/17 11:10:01;;;;;;;8.32;5.63;;;;;;;35.83;25.04;98868.66;5137057;28;20031;-93
2022/07/17 11:12:31;;;;;;;7.20;5.40;;;;;;;36.03;25.39;98868.81;5136652;28;20159;-94
2022/07/17 11:15:00;;;;;;;8.25;4.82;;;;;;;35.85;23.46;98855.47;5138607;28;20039;-94
2022/07/17 11:17:26;;;;;;;5.18;4.43;;;;;;;35.87;22.50;98842.28;5139242;28;20170;-94
2022/07/17 11:19:53;;;;;;;4.80;4.30;;;;;;;36.07;22.58;98854.38;5138838;28;20434;-91
2022/07/17 11:22:24;;;;;;;4.22;3.75;;;;;;;36.21;21.63;98846.16;5139034;27;20068;-93
2022/07/17 11:24:50;;;;;;;4.82;4.22;;;;;;;36.15;22.19;98859.78;5139015;27;20035;-94
2022/07/17 11:27:20;;;;;;;6.75;4.82;;;;;;;36.22;22.43;98850.63;5138298;28;20047;-93
2022/07/17 11:29:47;;;;;;;6.43;4.65;;;;;;;36.05;22.95;98855.63;5136769;27;20059;-93
2022/07/17 11:32:13;;;;;;;6.47;4.70;;;;;;;35.58;23.32;98849.72;5138760;27;20492;-94